Time;durP1;ratioP1;P1;durP2;ratioP2;P2;SDS_P1;SDS_P2;PMS_P1;PMS_P2;Temp;Humidity;BMP_temperature;BMP_pressure;BME280_temperature;BME280_humidity;BME280_pressure;Samples;Min_cycle;Max_cycle;Signal;HPM_P1;HPM_P2
2022/12/19 00:01:17;;;;;;;36.08;18.50;;;;;;;;;;5026869;28;20087;-76
2022/12/19 00:03:48;;;;;;;34.47;18.23;;;;;;;;;;5027392;28;20037;-76
2022/12/19 00:06:15;;;;;;;34.00;19.45;;;;;;;;;;5016445;28;20049;-76
2022/12/19 00:08:42;;;;;;;33.75;19.33;;;;;;;;;;5025118;28;20069;-76
2022/12/19 00:11:08;;;;;;;33.13;19.23;;;;;;;;;;5021711;28;20062;-76
2022/12/19 00:13:34;;;;;;;36.03;19.90;;;;;;;;;;5000941;28;20049;-76
2022/12/19 00:16:05;;;;;;;34.95;21.08;;;;;;;;;;4999623;28;20081;-76
2022/12/19 00:18:31;;;;;;;32.13;19.05;;;;;;;;;;5035618;28;20048;-76
2022/12/19 00:21:01;;;;;;;36.65;19.67;;;;;;;;;;5021191;28;20133;-76
2022/12/19 00:23:29;;;;;;;32.85;17.67;;;;;;;;;;5020694;28;20064;-76
2022/12/19 00:25:55;;;;;;;35.78;17.80;;;;;;;;;;5016785;28;20042;-76
2022/12/19 00:28:21;;;;;;;33.95;19.33;;;;;;;;;;5017375;28;20050;-76
2022/12/19 00:30:47;;;;;;;35.70;18.50;;;;;;;;;;5035348;28;20042;-76
2022/12/19 00:33:13;;;;;;;36.33;20.67;;;;;;;;;;5035814;28;20041;-76
2022/12/19 00:35:39;;;;;;;35.78;20.95;;;;;;;;;;5028836;28;20385;-76
2022/12/19 00:38:05;;;;;;;41.20;21.75;;;;;;;;;;5024658;28;20549;-76
2022/12/19 00:40:31;;;;;;;35.88;19.67;;;;;;;;;;5026301;28;20049;-75
2022/12/19 00:42:57;;;;;;;39.05;21.35;;;;;;;;;;5029077;28;20486;-75
2022/12/19 00:45:23;;;;;;;37.28;20.38;;;;;;;;;;5018413;28;20050;-75
2022/12/19 00:47:49;;;;;;;40.20;20.90;;;;;;;;;;5023661;28;20045;-75
2022/12/19 00:50:15;;;;;;;41.65;21.27;;;;;;;;;;4997361;28;20077;-75
2022/12/19 00:52:41;;;;;;;35.03;19.08;;;;;;;;;;5021682;28;20048;-75
2022/12/19 00:55:07;;;;;;;41.17;22.10;;;;;;;;;;5032752;28;20038;-75
2022/12/19 00:57:33;;;;;;;45.53;22.40;;;;;;;;;;5025889;28;20080;-75
2022/12/19 00:59:59;;;;;;;40.35;22.30;;;;;;;;;;5035452;28;20454;-76
2022/12/19 01:02:25;;;;;;;38.63;21.17;;;;;;;;;;5034265;28;20061;-75
2022/12/19 01:04:52;;;;;;;40.17;21.27;;;;;;;;;;5017109;28;20454;-75
2022/12/19 01:07:18;;;;;;;40.25;21.92;;;;;;;;;;5026249;28;20038;-76
2022/12/19 01:09:44;;;;;;;41.65;22.73;;;;;;;;;;5030424;28;20046;-75
2022/12/19 01:14:55;;;;;;;44.70;23.23;;;;;;;;;;5026562;28;20058;-75
2022/12/19 01:17:22;;;;;;;46.47;21.80;;;;;;;;;;5035087;28;20049;-75
2022/12/19 01:19:48;;;;;;;43.20;22.23;;;;;;;;;;5023026;28;20462;-75
2022/12/19 01:22:14;;;;;;;40.00;22.05;;;;;;;;;;5015378;28;20430;-75
2022/12/19 01:24:40;;;;;;;41.88;21.25;;;;;;;;;;5024853;28;20053;-75
2022/12/19 01:27:06;;;;;;;40.00;21.27;;;;;;;;;;5020062;28;20053;-75
2022/12/19 01:29:32;;;;;;;41.13;22.67;;;;;;;;;;5015189;28;20046;-74
2022/12/19 01:31:58;;;;;;;43.42;22.02;;;;;;;;;;5019445;28;20497;-74
2022/12/19 01:34:24;;;;;;;45.28;23.08;;;;;;;;;;5015148;28;20073;-78
2022/12/19 01:36:50;;;;;;;39.45;22.50;;;;;;;;;;5015415;28;20042;-75
2022/12/19 01:39:16;;;;;;;43.60;22.90;;;;;;;;;;5015506;28;20050;-74
2022/12/19 01:41:42;;;;;;;43.20;22.58;;;;;;;;;;5015494;28;20049;-74
2022/12/19 01:44:09;;;;;;;41.17;21.30;;;;;;;;;;5014564;28;20041;-74
2022/12/19 01:46:36;;;;;;;42.40;22.85;;;;;;;;;;5028495;28;20120;-74
2022/12/19 01:49:04;;;;;;;40.78;21.45;;;;;;;;;;5028278;28;20044;-74
2022/12/19 01:51:39;;;;;;;40.83;21.58;;;;;;;;;;5023366;28;20042;-74
2022/12/19 01:54:07;;;;;;;49.33;23.25;;;;;;;;;;5018341;28;20096;-74
2022/12/19 01:56:35;;;;;;;45.25;23.08;;;;;;;;;;5033384;28;20124;-74
2022/12/19 01:59:04;;;;;;;41.63;21.75;;;;;;;;;;5034317;28;20149;-74
2022/12/19 02:01:31;;;;;;;44.88;22.80;;;;;;;;;;5024831;28;20125;-75
2022/12/19 02:03:57;;;;;;;41.00;20.95;;;;;;;;;;5014574;28;20441;-74
2022/12/19 02:06:23;;;;;;;40.15;21.08;;;;;;;;;;5014568;28;20042;-74
2022/12/19 02:08:50;;;;;;;43.40;20.90;;;;;;;;;;5027940;28;20088;-74
2022/12/19 02:11:16;;;;;;;46.65;23.75;;;;;;;;;;5033233;28;20056;-74
2022/12/19 02:13:43;;;;;;;43.45;22.48;;;;;;;;;;5032974;28;20100;-74
2022/12/19 02:16:18;;;;;;;43.60;21.88;;;;;;;;;;5023821;28;20045;-74
2022/12/19 02:18:44;;;;;;;43.28;23.75;;;;;;;;;;5014163;28;20046;-74
2022/12/19 02:21:13;;;;;;;44.33;22.05;;;;;;;;;;5014076;28;20454;-75
2022/12/19 02:23:39;;;;;;;48.55;23.73;;;;;;;;;;5019704;28;20049;-74
2022/12/19 02:26:24;;;;;;;45.40;22.55;;;;;;;;;;5014253;28;20037;-74
2022/12/19 02:29:05;;;;;;;49.33;24.15;;;;;;;;;;5004113;28;20089;-74
2022/12/19 02:31:39;;;;;;;47.75;24.33;;;;;;;;;;5015131;28;20132;-74
2022/12/19 02:34:10;;;;;;;46.67;25.00;;;;;;;;;;5028505;28;20120;-74
2022/12/19 02:36:39;;;;;;;51.97;26.30;;;;;;;;;;5024338;28;20482;-74
2022/12/19 02:39:08;;;;;;;47.70;25.00;;;;;;;;;;5033048;28;20046;-74
2022/12/19 02:41:44;;;;;;;49.65;24.88;;;;;;;;;;5017500;28;20049;-74
2022/12/19 02:44:12;;;;;;;47.35;23.75;;;;;;;;;;5028508;28;20049;-74
2022/12/19 02:46:39;;;;;;;47.30;23.70;;;;;;;;;;5023375;28;20045;-74
2022/12/19 02:49:05;;;;;;;50.30;25.48;;;;;;;;;;5027860;28;20042;-74
2022/12/19 02:51:31;;;;;;;50.65;25.88;;;;;;;;;;5016286;28;20079;-74
2022/12/19 02:53:57;;;;;;;50.47;24.17;;;;;;;;;;5017340;28;20087;-74
2022/12/19 02:56:33;;;;;;;57.75;26.80;;;;;;;;;;5030255;28;20041;-74
2022/12/19 02:58:59;;;;;;;49.80;26.05;;;;;;;;;;5011707;28;20050;-74
2022/12/19 03:01:38;;;;;;;59.13;26.35;;;;;;;;;;5021318;28;20095;-74
2022/12/19 03:04:10;;;;;;;50.88;24.55;;;;;;;;;;5000996;28;20042;-74
2022/12/19 03:06:36;;;;;;;50.15;24.85;;;;;;;;;;5015200;28;20129;-74
2022/12/19 03:09:07;;;;;;;54.08;24.45;;;;;;;;;;5032732;28;20120;-74
2022/12/19 03:11:38;;;;;;;52.00;25.42;;;;;;;;;;5016832;28;20443;-74
2022/12/19 03:14:10;;;;;;;50.67;24.25;;;;;;;;;;5014255;28;20042;-74
2022/12/19 03:16:37;;;;;;;49.67;23.13;;;;;;;;;;5026515;28;20112;-74
2022/12/19 03:19:04;;;;;;;55.55;24.88;;;;;;;;;;5023188;28;20049;-74
2022/12/19 03:21:38;;;;;;;54.05;26.48;;;;;;;;;;5014014;28;20058;-74
2022/12/19 03:24:05;;;;;;;54.03;25.67;;;;;;;;;;5014356;28;20038;-74
2022/12/19 03:26:39;;;;;;;62.38;26.92;;;;;;;;;;5001373;28;20050;-75
2022/12/19 03:29:13;;;;;;;51.92;26.23;;;;;;;;;;5023085;28;20486;-75
2022/12/19 03:31:40;;;;;;;49.28;25.00;;;;;;;;;;5032815;28;20046;-75
2022/12/19 03:34:09;;;;;;;47.30;24.00;;;;;;;;;;5032817;28;20106;-75
2022/12/19 03:36:38;;;;;;;46.42;24.08;;;;;;;;;;5020866;28;20037;-75
2022/12/19 03:39:06;;;;;;;48.65;24.45;;;;;;;;;;5024968;28;20045;-74
2022/12/19 03:44:18;;;;;;;53.15;24.88;;;;;;;;;;5032870;28;20378;-74
2022/12/19 03:46:48;;;;;;;56.08;25.42;;;;;;;;;;5040685;28;20045;-74
2022/12/19 03:49:14;;;;;;;52.03;25.58;;;;;;;;;;5056296;28;20041;-74
2022/12/19 03:51:46;;;;;;;50.20;25.27;;;;;;;;;;5056841;28;20048;-74
2022/12/19 03:54:16;;;;;;;56.05;25.38;;;;;;;;;;5037887;28;20033;-74
2022/12/19 03:56:57;;;;;;;51.38;26.33;;;;;;;;;;5021334;28;20038;-74
2022/12/19 03:59:23;;;;;;;56.80;26.63;;;;;;;;;;5016293;28;20041;-74
2022/12/19 04:01:49;;;;;;;64.15;28.33;;;;;;;;;;5017018;28;20042;-74
2022/12/19 04:04:16;;;;;;;54.47;26.08;;;;;;;;;;5016912;28;20053;-74
2022/12/19 04:06:42;;;;;;;56.53;27.20;;;;;;;;;;5030417;28;20053;-74
2022/12/19 04:09:09;;;;;;;59.38;29.25;;;;;;;;;;5026407;28;20041;-74
2022/12/19 04:11:39;;;;;;;62.95;27.67;;;;;;;;;;5036027;28;20132;-74
2022/12/19 04:14:08;;;;;;;63.90;27.52;;;;;;;;;;5031129;28;20046;-74
2022/12/19 04:16:33;;;;;;;55.50;25.80;;;;;;;;;;5018808;28;20041;-74
2022/12/19 04:19:05;;;;;;;61.35;27.33;;;;;;;;;;5016613;28;20125;-74
2022/12/19 04:21:34;;;;;;;60.05;27.63;;;;;;;;;;5024894;28;20918;-74
2022/12/19 04:24:05;;;;;;;58.33;28.17;;;;;;;;;;5034808;28;20083;-74
2022/12/19 04:26:33;;;;;;;62.47;29.10;;;;;;;;;;5031486;28;20042;-74
2022/12/19 04:29:01;;;;;;;56.83;26.58;;;;;;;;;;5019614;28;20412;-74
2022/12/19 04:31:28;;;;;;;61.95;29.52;;;;;;;;;;5033466;28;20053;-74
2022/12/19 04:33:54;;;;;;;55.70;27.52;;;;;;;;;;5016141;28;20116;-74
2022/12/19 04:36:20;;;;;;;63.50;27.73;;;;;;;;;;5006489;28;20038;-74
2022/12/19 04:38:46;;;;;;;61.67;27.85;;;;;;;;;;5031762;28;20528;-74
2022/12/19 04:41:12;;;;;;;68.97;28.98;;;;;;;;;;5016543;28;20065;-74
2022/12/19 04:43:38;;;;;;;59.25;28.58;;;;;;;;;;5035332;28;20115;-74
2022/12/19 04:46:04;;;;;;;62.75;28.10;;;;;;;;;;5035190;28;20080;-74
2022/12/19 04:48:30;;;;;;;49.10;23.95;;;;;;;;;;5033705;28;20100;-74
2022/12/19 04:50:56;;;;;;;63.20;28.13;;;;;;;;;;5020862;28;20090;-74
2022/12/19 04:53:22;;;;;;;51.55;25.23;;;;;;;;;;5016312;28;20490;-74
2022/12/19 04:55:48;;;;;;;57.47;27.60;;;;;;;;;;5015836;28;20045;-74
2022/12/19 04:58:14;;;;;;;57.28;25.92;;;;;;;;;;5017279;28;20129;-74
2022/12/19 05:00:40;;;;;;;54.97;26.83;;;;;;;;;;5034859;28;20042;-75
2022/12/19 05:03:06;;;;;;;60.60;28.52;;;;;;;;;;5002489;28;20054;-74
2022/12/19 05:05:32;;;;;;;60.85;25.92;;;;;;;;;;5020922;28;20501;-75
2022/12/19 05:07:58;;;;;;;62.38;27.13;;;;;;;;;;5016536;28;20045;-75
2022/12/19 05:10:25;;;;;;;61.42;26.70;;;;;;;;;;5016410;28;20516;-75
2022/12/19 05:12:51;;;;;;;63.28;28.73;;;;;;;;;;5034879;28;20068;-75
2022/12/19 05:15:17;;;;;;;61.17;28.15;;;;;;;;;;5017013;28;20055;-74
2022/12/19 05:17:43;;;;;;;63.60;28.10;;;;;;;;;;5035487;28;20041;-74
2022/12/19 05:20:09;;;;;;;58.60;27.77;;;;;;;;;;5019168;28;20141;-74
2022/12/19 05:22:35;;;;;;;56.28;25.45;;;;;;;;;;5017080;28;20038;-75
2022/12/19 05:25:01;;;;;;;57.05;26.83;;;;;;;;;;5010292;28;20051;-74
2022/12/19 05:27:27;;;;;;;57.28;25.58;;;;;;;;;;5027809;28;20057;-75
2022/12/19 05:29:53;;;;;;;60.97;27.77;;;;;;;;;;5007816;28;20468;-75
2022/12/19 05:32:19;;;;;;;61.42;27.42;;;;;;;;;;5034527;28;20505;-75
2022/12/19 05:34:45;;;;;;;60.22;26.52;;;;;;;;;;5017056;28;20108;-75
2022/12/19 05:37:11;;;;;;;57.70;27.02;;;;;;;;;;5034601;28;20129;-75
2022/12/19 05:39:37;;;;;;;58.80;27.10;;;;;;;;;;5027560;28;20061;-75
2022/12/19 05:42:04;;;;;;;56.90;24.92;;;;;;;;;;5015129;28;20049;-75
2022/12/19 05:44:31;;;;;;;60.53;26.75;;;;;;;;;;5028204;28;20057;-75
2022/12/19 05:46:57;;;;;;;59.30;26.13;;;;;;;;;;5013661;28;20053;-75
2022/12/19 05:49:23;;;;;;;67.25;28.67;;;;;;;;;;5016287;28;20034;-75
2022/12/19 05:51:49;;;;;;;58.05;25.00;;;;;;;;;;5015431;28;20489;-75
2022/12/19 05:54:15;;;;;;;57.03;25.60;;;;;;;;;;5015771;28;20065;-75
2022/12/19 05:56:41;;;;;;;57.50;26.33;;;;;;;;;;5012789;28;20132;-74
2022/12/19 05:59:07;;;;;;;57.60;25.83;;;;;;;;;;5014698;28;20092;-74
2022/12/19 06:01:33;;;;;;;49.10;22.98;;;;;;;;;;5014281;28;20410;-74
2022/12/19 06:03:59;;;;;;;46.78;22.42;;;;;;;;;;5027693;28;20045;-74
2022/12/19 06:06:26;;;;;;;51.72;24.80;;;;;;;;;;5017068;28;20041;-75
2022/12/19 06:08:53;;;;;;;50.30;22.08;;;;;;;;;;5015576;28;20393;-75
2022/12/19 06:11:19;;;;;;;50.35;23.63;;;;;;;;;;5027774;28;20049;-75
2022/12/19 06:13:45;;;;;;;44.28;22.48;;;;;;;;;;5015489;28;20056;-75
2022/12/19 06:16:15;;;;;;;40.13;19.40;;;;;;;;;;5032938;28;20053;-75
2022/12/19 06:18:42;;;;;;;45.53;21.25;;;;;;;;;;5033282;28;20041;-75
2022/12/19 06:21:19;;;;;;;45.85;21.65;;;;;;;;;;5016477;28;20049;-75
2022/12/19 06:23:45;;;;;;;42.53;19.88;;;;;;;;;;5029751;28;20069;-75
2022/12/19 06:26:12;;;;;;;40.08;19.52;;;;;;;;;;5026430;28;20038;-75
2022/12/19 06:28:38;;;;;;;44.10;21.65;;;;;;;;;;5005925;28;20042;-75
2022/12/19 06:31:05;;;;;;;39.88;19.63;;;;;;;;;;5026410;28;20042;-75
2022/12/19 06:33:32;;;;;;;41.40;20.25;;;;;;;;;;5011024;28;20045;-75
2022/12/19 06:35:59;;;;;;;39.75;21.17;;;;;;;;;;5020458;28;20387;-74
2022/12/19 06:38:25;;;;;;;36.80;18.65;;;;;;;;;;5025924;28;20049;-75
2022/12/19 06:43:36;;;;;;;44.10;20.15;;;;;;;;;;5032890;28;20128;-75
2022/12/19 06:46:02;;;;;;;42.97;21.33;;;;;;;;;;5032038;28;20075;-75
2022/12/19 06:48:30;;;;;;;38.80;19.42;;;;;;;;;;5015929;28;20046;-75
2022/12/19 06:50:57;;;;;;;37.20;17.50;;;;;;;;;;5039927;28;20513;-75
2022/12/19 06:53:23;;;;;;;39.10;19.35;;;;;;;;;;5052288;28;20052;-75
2022/12/19 06:55:50;;;;;;;31.70;18.00;;;;;;;;;;5052463;28;20045;-75
2022/12/19 06:58:17;;;;;;;35.13;18.75;;;;;;;;;;5053005;28;20052;-75
2022/12/19 07:00:43;;;;;;;37.08;17.90;;;;;;;;;;5035210;28;20423;-75
2022/12/19 07:03:10;;;;;;;32.47;16.10;;;;;;;;;;5053680;28;20051;-75
2022/12/19 07:05:37;;;;;;;34.47;17.00;;;;;;;;;;5053548;28;20129;-75
2022/12/19 07:08:03;;;;;;;31.23;17.42;;;;;;;;;;5035573;28;20481;-75
2022/12/19 07:10:29;;;;;;;27.13;16.17;;;;;;;;;;5022782;28;20104;-75
2022/12/19 07:12:55;;;;;;;27.55;16.13;;;;;;;;;;5029387;28;20059;-75
2022/12/19 07:15:21;;;;;;;29.40;15.50;;;;;;;;;;5024989;28;21476;-75
2022/12/19 07:17:47;;;;;;;30.05;15.95;;;;;;;;;;5018634;28;20053;-75
2022/12/19 07:20:14;;;;;;;26.70;15.70;;;;;;;;;;5006248;28;20042;-75
2022/12/19 07:22:40;;;;;;;29.27;16.75;;;;;;;;;;5015851;28;20100;-75
2022/12/19 07:25:07;;;;;;;28.60;15.65;;;;;;;;;;5019860;28;20068;-75
2022/12/19 07:27:34;;;;;;;30.23;14.70;;;;;;;;;;5019032;28;20502;-75
2022/12/19 07:30:01;;;;;;;26.05;15.63;;;;;;;;;;5018853;28;20045;-75
2022/12/19 07:32:27;;;;;;;23.58;14.23;;;;;;;;;;5035628;28;20046;-75
2022/12/19 07:34:55;;;;;;;24.42;14.07;;;;;;;;;;5027996;28;20116;-75
2022/12/19 07:37:21;;;;;;;27.83;14.35;;;;;;;;;;5011022;28;20053;-75
2022/12/19 07:39:48;;;;;;;27.63;14.73;;;;;;;;;;5029901;28;20099;-75
2022/12/19 07:42:14;;;;;;;26.20;14.15;;;;;;;;;;5012844;28;20056;-75
2022/12/19 07:44:40;;;;;;;25.17;14.05;;;;;;;;;;5024342;28;20038;-75
2022/12/19 07:47:06;;;;;;;25.42;14.60;;;;;;;;;;5031703;28;20044;-74
2022/12/19 07:49:32;;;;;;;27.10;14.98;;;;;;;;;;5017301;28;20053;-74
2022/12/19 07:51:58;;;;;;;27.27;15.07;;;;;;;;;;5036635;28;20037;-74
2022/12/19 07:54:24;;;;;;;27.45;15.13;;;;;;;;;;5034658;28;20049;-75
2022/12/19 07:56:50;;;;;;;23.38;13.65;;;;;;;;;;5028831;28;20119;-75
2022/12/19 07:59:16;;;;;;;26.38;14.68;;;;;;;;;;5036632;28;20124;-75
2022/12/19 08:01:42;;;;;;;22.77;13.43;;;;;;;;;;5035859;28;20409;-75
2022/12/19 08:04:08;;;;;;;24.17;14.23;;;;;;;;;;5026970;28;20038;-74
2022/12/19 08:06:35;;;;;;;24.67;14.88;;;;;;;;;;5027435;28;20095;-74
2022/12/19 08:09:01;;;;;;;26.58;15.25;;;;;;;;;;5017812;28;20119;-74
2022/12/19 08:11:28;;;;;;;27.38;15.45;;;;;;;;;;5022458;28;20425;-74
2022/12/19 08:13:55;;;;;;;26.20;16.15;;;;;;;;;;5001125;28;20085;-74
2022/12/19 08:16:21;;;;;;;25.27;15.07;;;;;;;;;;5006847;28;20118;-75
2022/12/19 08:18:47;;;;;;;25.83;15.13;;;;;;;;;;5014553;28;20041;-74
2022/12/19 08:21:14;;;;;;;28.15;15.23;;;;;;;;;;5031683;28;20393;-74
2022/12/19 08:23:40;;;;;;;26.20;14.73;;;;;;;;;;5033130;28;20054;-74
2022/12/19 08:26:11;;;;;;;25.65;15.68;;;;;;;;;;5022759;28;20501;-74
2022/12/19 08:28:37;;;;;;;23.92;13.88;;;;;;;;;;5035889;28;20424;-74
2022/12/19 08:31:06;;;;;;;26.60;14.63;;;;;;;;;;5016948;28;20425;-76
2022/12/19 08:33:32;;;;;;;23.77;13.75;;;;;;;;;;5005301;28;20045;-74
2022/12/19 08:35:58;;;;;;;25.80;13.95;;;;;;;;;;5034359;28;20485;-78
2022/12/19 08:38:24;;;;;;;25.42;14.35;;;;;;;;;;5034490;28;20053;-74
2022/12/19 08:40:53;;;;;;;23.67;14.43;;;;;;;;;;5018053;28;20049;-74
2022/12/19 08:43:20;;;;;;;24.33;14.90;;;;;;;;;;5017831;28;20073;-75
2022/12/19 08:45:49;;;;;;;27.50;14.32;;;;;;;;;;5035335;28;20104;-75
2022/12/19 08:48:15;;;;;;;28.50;16.15;;;;;;;;;;5016581;28;20050;-75
2022/12/19 08:50:48;;;;;;;24.63;14.43;;;;;;;;;;5034948;28;20455;-75
2022/12/19 08:53:14;;;;;;;27.92;15.82;;;;;;;;;;5035228;28;20057;-75
2022/12/19 08:55:40;;;;;;;29.88;16.60;;;;;;;;;;5035059;28;20111;-75
2022/12/19 08:58:06;;;;;;;27.48;16.85;;;;;;;;;;5016634;28;20532;-75
2022/12/19 09:00:32;;;;;;;29.02;16.67;;;;;;;;;;5015830;28;20125;-75
2022/12/19 09:02:58;;;;;;;29.73;16.52;;;;;;;;;;5037235;28;20048;-76
2022/12/19 09:05:24;;;;;;;30.58;17.70;;;;;;;;;;5022560;28;20042;-76
2022/12/19 09:07:51;;;;;;;30.92;17.40;;;;;;;;;;5016922;28;20056;-75
2022/12/19 09:10:17;;;;;;;28.67;16.83;;;;;;;;;;5034332;28;20504;-75
2022/12/19 09:12:45;;;;;;;31.15;17.55;;;;;;;;;;5016482;28;20053;-75
2022/12/19 09:15:11;;;;;;;29.58;18.00;;;;;;;;;;5017150;28;20046;-76
2022/12/19 09:17:37;;;;;;;32.92;19.08;;;;;;;;;;5025151;28;20041;-75
2022/12/19 09:20:04;;;;;;;31.63;18.42;;;;;;;;;;5026791;28;20041;-76
2022/12/19 09:22:30;;;;;;;32.63;17.50;;;;;;;;;;5016670;28;20068;-75
2022/12/19 09:24:56;;;;;;;32.53;19.55;;;;;;;;;;5034661;28;20470;-77
2022/12/19 09:27:23;;;;;;;32.17;19.42;;;;;;;;;;5031886;28;20050;-75
2022/12/19 09:29:49;;;;;;;32.50;19.35;;;;;;;;;;5033757;28;20037;-76
2022/12/19 09:32:15;;;;;;;33.00;19.77;;;;;;;;;;5042872;28;20037;-75
2022/12/19 09:34:41;;;;;;;32.83;20.80;;;;;;;;;;5015656;28;20576;-75
2022/12/19 09:37:08;;;;;;;28.80;18.98;;;;;;;;;;5021522;28;20049;-75
2022/12/19 09:39:35;;;;;;;29.48;18.33;;;;;;;;;;5038473;28;20045;-76
2022/12/19 09:42:05;;;;;;;32.38;19.20;;;;;;;;;;5016864;28;20049;-76
2022/12/19 09:44:40;;;;;;;32.67;19.52;;;;;;;;;;5039902;28;20048;-76
2022/12/19 09:47:15;;;;;;;30.58;21.05;;;;;;;;;;5018271;28;20559;-75
2022/12/19 09:49:42;;;;;;;32.63;19.30;;;;;;;;;;5018726;28;20064;-76
2022/12/19 09:52:11;;;;;;;31.58;19.70;;;;;;;;;;5046087;28;20103;-75
2022/12/19 09:54:41;;;;;;;29.35;20.63;;;;;;;;;;5015603;28;20135;-75
2022/12/19 09:57:16;;;;;;;33.22;19.88;;;;;;;;;;5033579;28;20052;-75
2022/12/19 09:59:44;;;;;;;29.63;18.20;;;;;;;;;;5015845;28;20493;-75
2022/12/19 10:02:22;;;;;;;28.00;18.73;;;;;;;;;;5033598;28;20076;-75
2022/12/19 10:04:50;;;;;;;29.42;19.52;;;;;;;;;;5033072;28;20511;-75
2022/12/19 10:07:17;;;;;;;31.77;20.02;;;;;;;;;;5033171;28;20169;-75
2022/12/19 10:09:44;;;;;;;29.92;19.15;;;;;;;;;;5033334;28;20045;-75
2022/12/19 10:12:33;;;;;;;31.15;18.98;;;;;;;;;;5030756;28;20128;-75
2022/12/19 10:15:05;;;;;;;29.90;18.90;;;;;;;;;;5039387;28;20124;-75
2022/12/19 10:17:43;;;;;;;29.67;19.15;;;;;;;;;;5033251;28;20052;-75
2022/12/19 10:20:15;;;;;;;27.95;18.48;;;;;;;;;;5033776;28;20512;-75
2022/12/19 10:22:50;;;;;;;27.52;18.10;;;;;;;;;;5032656;28;20057;-75
2022/12/19 10:25:28;;;;;;;28.05;17.58;;;;;;;;;;5031053;28;20042;-75
2022/12/19 10:28:00;;;;;;;25.15;16.83;;;;;;;;;;5026157;28;20496;-76
2022/12/19 10:30:27;;;;;;;28.80;18.10;;;;;;;;;;5032356;28;20041;-75
2022/12/19 10:33:12;;;;;;;25.30;17.90;;;;;;;;;;5026194;28;20045;-75
2022/12/19 10:35:42;;;;;;;24.50;16.67;;;;;;;;;;5021763;28;20120;-75
2022/12/19 10:38:11;;;;;;;27.00;17.92;;;;;;;;;;5032866;28;20053;-76
2022/12/19 10:40:39;;;;;;;26.17;17.05;;;;;;;;;;5030178;28;20048;-76
2022/12/19 10:43:11;;;;;;;24.35;15.88;;;;;;;;;;5039439;28;20042;-75
2022/12/19 10:45:39;;;;;;;22.65;16.05;;;;;;;;;;5014306;28;20522;-76
2022/12/19 10:48:06;;;;;;;21.63;15.20;;;;;;;;;;5031241;28;20109;-76
2022/12/19 10:50:33;;;;;;;25.80;16.58;;;;;;;;;;5015306;28;20053;-76
2022/12/19 10:53:07;;;;;;;20.92;15.05;;;;;;;;;;5028917;28;20501;-76
2022/12/19 10:55:33;;;;;;;20.73;15.57;;;;;;;;;;5027705;28;20045;-76
2022/12/19 10:58:09;;;;;;;20.45;15.00;;;;;;;;;;5032615;28;20068;-75
2022/12/19 11:00:35;;;;;;;20.88;13.98;;;;;;;;;;5027805;28;20034;-75
2022/12/19 11:03:14;;;;;;;17.45;12.85;;;;;;;;;;5032972;28;20037;-75
2022/12/19 11:05:49;;;;;;;19.65;13.43;;;;;;;;;;5032155;28;20049;-75
2022/12/19 11:08:15;;;;;;;18.90;14.20;;;;;;;;;;5032740;28;20120;-75
2022/12/19 11:10:42;;;;;;;18.77;13.93;;;;;;;;;;5031413;28;20042;-77
2022/12/19 11:13:21;;;;;;;18.08;13.35;;;;;;;;;;5031962;28;20493;-75
2022/12/19 11:15:51;;;;;;;17.77;12.98;;;;;;;;;;5032313;28;20049;-76
2022/12/19 11:18:17;;;;;;;17.63;12.63;;;;;;;;;;5033489;28;20045;-75
2022/12/19 11:21:02;;;;;;;16.10;12.80;;;;;;;;;;5032825;28;20478;-75
2022/12/19 11:23:30;;;;;;;16.15;12.10;;;;;;;;;;5032856;28;20120;-75
2022/12/19 11:25:58;;;;;;;16.17;12.00;;;;;;;;;;5032614;28;20500;-75
2022/12/19 11:28:24;;;;;;;16.92;12.32;;;;;;;;;;5032612;28;20049;-75
2022/12/19 11:30:58;;;;;;;15.57;10.77;;;;;;;;;;5035212;28;20187;-75
2022/12/19 11:33:24;;;;;;;15.68;11.73;;;;;;;;;;5032727;28;20076;-75
2022/12/19 11:35:51;;;;;;;16.88;11.68;;;;;;;;;;5032327;28;20091;-75
2022/12/19 11:38:28;;;;;;;16.95;11.93;;;;;;;;;;5032962;28;20072;-75
2022/12/19 11:40:56;;;;;;;15.52;11.40;;;;;;;;;;5032539;28;20552;-76
2022/12/19 11:43:40;;;;;;;17.08;13.07;;;;;;;;;;5030987;28;20045;-76
2022/12/19 11:46:21;;;;;;;18.23;12.85;;;;;;;;;;5034324;28;20046;-80
2022/12/19 11:48:51;;;;;;;15.30;11.93;;;;;;;;;;5043380;28;20041;-76
2022/12/19 11:51:36;;;;;;;14.70;11.90;;;;;;;;;;5014295;28;20037;-76
2022/12/19 11:54:17;;;;;;;14.10;11.38;;;;;;;;;;5032593;28;20081;-76
2022/12/19 11:56:43;;;;;;;15.63;11.98;;;;;;;;;;5032472;28;20454;-76
2022/12/19 11:59:16;;;;;;;14.00;11.80;;;;;;;;;;5032359;28;20058;-76
2022/12/19 12:02:08;;;;;;;15.63;10.98;;;;;;;;;;5040403;28;20041;-76
2022/12/19 12:04:34;;;;;;;16.65;12.15;;;;;;;;;;5017018;28;20094;-76
2022/12/19 12:07:00;;;;;;;14.98;11.18;;;;;;;;;;5031416;28;20037;-76
2022/12/19 12:09:30;;;;;;;15.60;11.10;;;;;;;;;;5031153;28;20069;-76
2022/12/19 12:12:02;;;;;;;14.27;10.82;;;;;;;;;;5048347;28;20131;-76
2022/12/19 12:14:39;;;;;;;13.85;10.30;;;;;;;;;;5029267;28;20055;-77
2022/12/19 12:17:28;;;;;;;15.27;10.60;;;;;;;;;;5040751;28;20041;-77
2022/12/19 12:20:07;;;;;;;15.65;10.13;;;;;;;;;;5018099;28;20394;-77
2022/12/19 12:22:44;;;;;;;13.55;9.75;;;;;;;;;;5023985;28;20045;-78
2022/12/19 12:25:29;;;;;;;14.93;10.40;;;;;;;;;;5036307;28;20049;-76
2022/12/19 12:28:01;;;;;;;12.68;9.65;;;;;;;;;;5031514;28;20104;-77
2022/12/19 12:30:31;;;;;;;13.20;9.88;;;;;;;;;;5035666;28;20540;-77
2022/12/19 12:33:20;;;;;;;12.90;8.80;;;;;;;;;;5043171;28;20485;-77
2022/12/19 12:35:50;;;;;;;12.43;9.20;;;;;;;;;;5036205;28;20041;-77
2022/12/19 12:38:35;;;;;;;12.60;9.60;;;;;;;;;;5017791;28;20045;-77
2022/12/19 12:41:09;;;;;;;11.80;9.27;;;;;;;;;;5017577;28;20045;-77
2022/12/19 12:43:53;;;;;;;12.35;9.15;;;;;;;;;;5035899;28;20042;-77
2022/12/19 12:46:22;;;;;;;10.63;8.75;;;;;;;;;;5038894;28;20519;-76
2022/12/19 12:48:53;;;;;;;10.93;8.93;;;;;;;;;;5041149;28;20041;-76
2022/12/19 12:51:19;;;;;;;11.90;9.55;;;;;;;;;;5037848;28;20045;-76
2022/12/19 12:53:48;;;;;;;11.68;9.27;;;;;;;;;;5018204;28;20486;-77
2022/12/19 12:56:16;;;;;;;11.52;9.38;;;;;;;;;;5036470;28;20049;-77
2022/12/19 12:58:47;;;;;;;12.63;9.18;;;;;;;;;;5035369;28;20400;-77
2022/12/19 13:01:16;;;;;;;12.15;9.50;;;;;;;;;;5036891;28;20045;-77
2022/12/19 13:03:50;;;;;;;11.65;8.43;;;;;;;;;;5023584;28;20477;-77
2022/12/19 13:06:46;;;;;;;11.18;8.77;;;;;;;;;;5023084;28;20124;-77
2022/12/19 13:09:25;;;;;;;12.55;9.23;;;;;;;;;;4977016;28;20046;-77
2022/12/19 13:14:48;;;;;;;11.73;9.00;;;;;;;;;;4984454;28;20101;-77
2022/12/19 13:17:19;;;;;;;12.10;9.52;;;;;;;;;;4983583;28;20438;-77
2022/12/19 13:19:55;;;;;;;12.32;10.25;;;;;;;;;;4992779;28;20077;-77
2022/12/19 13:22:36;;;;;;;12.65;9.65;;;;;;;;;;4993232;28;20042;-76
2022/12/19 13:25:22;;;;;;;14.40;10.70;;;;;;;;;;4993342;28;20541;-76
2022/12/19 13:27:49;;;;;;;15.82;10.57;;;;;;;;;;4993125;28;20170;-76
2022/12/19 13:30:16;;;;;;;16.15;11.10;;;;;;;;;;4992684;28;20038;-75
2022/12/19 13:32:42;;;;;;;14.50;11.13;;;;;;;;;;4992728;28;20073;-75
2022/12/19 13:35:10;;;;;;;13.23;10.93;;;;;;;;;;4992954;28;20510;-75
2022/12/19 13:37:40;;;;;;;14.68;10.98;;;;;;;;;;4992842;28;20046;-75
2022/12/19 13:40:24;;;;;;;16.17;11.10;;;;;;;;;;4976585;28;20081;-75
2022/12/19 13:45:59;;;;;;;14.65;11.73;;;;;;;;;;5024500;28;20426;-75
2022/12/19 13:48:25;;;;;;;14.75;11.55;;;;;;;;;;5033232;28;20038;-75
2022/12/19 13:50:52;;;;;;;14.07;10.73;;;;;;;;;;5034404;28;20045;-75
2022/12/19 13:53:21;;;;;;;14.82;11.38;;;;;;;;;;5033864;28;20045;-76
2022/12/19 13:55:48;;;;;;;14.65;11.80;;;;;;;;;;5034235;28;20041;-76
2022/12/19 13:58:22;;;;;;;16.00;10.70;;;;;;;;;;5034936;28;20061;-76
2022/12/19 14:00:48;;;;;;;14.52;11.27;;;;;;;;;;5047023;28;20124;-75
2022/12/19 14:03:20;;;;;;;14.48;10.73;;;;;;;;;;5039632;28;20473;-75
2022/12/19 14:05:53;;;;;;;15.65;11.35;;;;;;;;;;5033638;28;20037;-75
2022/12/19 14:08:23;;;;;;;14.35;11.27;;;;;;;;;;5018177;28;20047;-76
2022/12/19 14:10:51;;;;;;;16.67;11.88;;;;;;;;;;4999443;28;20056;-75
2022/12/19 14:16:03;;;;;;;15.48;11.75;;;;;;;;;;5033692;28;20086;-76
2022/12/19 14:18:31;;;;;;;19.63;13.57;;;;;;;;;;5015565;28;20045;-76
2022/12/19 14:21:09;;;;;;;18.90;13.85;;;;;;;;;;4997898;28;20052;-76
2022/12/19 14:23:35;;;;;;;20.33;14.77;;;;;;;;;;5013430;28;20037;-75
2022/12/19 14:26:01;;;;;;;17.50;13.68;;;;;;;;;;5015319;28;20053;-76
2022/12/19 14:28:37;;;;;;;20.45;15.32;;;;;;;;;;5033405;28;20087;-75
2022/12/19 14:31:05;;;;;;;19.60;13.70;;;;;;;;;;4999308;28;20385;-75
2022/12/19 14:33:33;;;;;;;20.30;14.70;;;;;;;;;;5004702;28;20393;-76
2022/12/19 14:35:59;;;;;;;21.60;15.75;;;;;;;;;;5030615;28;20112;-76
2022/12/19 14:38:27;;;;;;;19.65;13.23;;;;;;;;;;5014416;28;20037;-75
2022/12/19 14:40:53;;;;;;;18.40;13.93;;;;;;;;;;5033965;28;20120;-75
2022/12/19 14:43:38;;;;;;;18.92;13.68;;;;;;;;;;5033016;28;20379;-75
2022/12/19 14:46:20;;;;;;;17.25;13.90;;;;;;;;;;5033720;28;20063;-75